Mondercange, Luxembourg
Current Conditions -  °F | °C
As of 6:50 AM on Wednesday 22 Oct 2014 (Local Time) from ELLX Reporting Station
Broken Clouds Broken Clouds  
Wind Chill: 35°   Ceiling: 5000
Heat Index: 43°   Visibility: 6mi
Dew Point: 36°   Wind: 16mph
Humidity: 76%   Direction: 280°W
Pressure: 30.03"   Gusts: NA
Location:  49.53°N, 5.99°E
Report Text: ELLX 220450Z 28014KT 260V320 9999 FEW020 SCT030 BKN050 06/02 Q1017 NOSIG
Loading
Personal Weather Stations






























Interactive Weather Map
Tropical Storm Tracking
New forecast layout! Learn more

10-Day Weather Forecast

Advertisements
Track Severe Weather on mobile